KSDF/SDF METAR and TAF weather

Enter ICAO airport designator
Station Type Date Time Source
KSDF METAR 2019/08/22 08:56 UTC NOAA

KSDF 220856Z 01008KT 8SM -TSRA FEW030CB SCT060 OVC100 23/20 A3000 RMK AO2 WSHFT 0808 LTG DSNT ALQDS SLP153 FRQ LTGICCC SW-NW FRQ LTGICCC DSNT NE-SE TS SW-NW MOV E P0007 60048 T02280200 50015


Station Type Date Time Source
KSDF Decoded METAR 2019/08/22 08:56 UTC NOAA

Station name not available
Aug 22, 2019 - 04:56 AM EDT / 2019.08.22 0856 UTC
Wind: from the N (010 degrees) at 9 MPH (8 KT):0
Visibility: 8 mile(s):0
Sky conditions: overcast
Weather: light rain with thunder; Cumulonimbus clouds, lightning observed
Precipitation last hour: 0.07 inches
Temperature: 73.0 F (22.8 C)
Dew Point: 68.0 F (20.0 C)
Relative Humidity: 84%
Pressure (altimeter): 30 in. Hg (1015 hPa)
Pressure tendency: 0.04 inches (1.5 hPa) higher than three hours ago
ob: KSDF 220856Z 01008KT 8SM -TSRA FEW030CB SCT060 OVC100 23/20 A3000 RMK AO2 WSHFT 0808 LTG DSNT ALQDS SLP153 FRQ LTGICCC SW-NW FRQ LTGICCC DSNT NE-SE TS SW-NW MOV E P0007 60048 T02280200 50015
cycle: 9

Station Type Date Time Source
KSDF TAF 2019/08/22 08:18 UTC NOAA

TAF
AMD KSDF 220815Z 2208/2312 27010KT 6SM -SHRA VCTS SCT020CB BKN035
TEMPO 2208/2210 3SM TSRA BR BKN020CB
FM221000 VRB06KT 6SM -SHRA BKN022
FM221400 VRB06KT P6SM SCT035 BKN100
FM221800 26006KT P6SM BKN100 PROB30 2218/2224 3SM -TSRA BKN035CB

Example: see airport list